Weather at Hagersville (West Haldimand General Hospital) Heliport

Public forecast

Using degrees Celsius for public forecast. Weather courtesy of forecast.io.

Closest aviation weather report (METAR) to Hagersville (West Haldimand General Hospital) Heliport

Closest report is John C. Munro Hamilton International Airport, 13.8 nm (25.5 km) NNE.

2024/05/24 00:00 (retrieved 56 minutes ago)

CYHM 240000Z 22009KT 15SM FEW050 21/08 A2987 RMK CU1 CU TR VIA CYXU SLP114 DENSITY ALT 1800FT

Closest aviation forecast (TAF) to Hagersville (West Haldimand General Hospital) Heliport

Closest forecast is Region of Waterloo International Airport, 33.5 nm (62.1 km) NNW.

2024/05/23 20:42 (retrieved 4 hours ago)

TAF TAF CYKF 231940Z 2320/2408 25012G22KT P6SM BKN070 BECMG 2400/2402 27006KT FEW070 RMK FCST BASED ON AUTO OBS NXT FCST BY 240200Z